createdAt,value
2024-02-03T00:01:51.688Z,28.75
2024-02-03T00:04:18.715Z,30.63
2024-02-03T00:06:45.785Z,35.22
2024-02-03T00:09:12.803Z,32.15
2024-02-03T00:11:40.009Z,33.10
2024-02-03T00:14:07.140Z,32.65
2024-02-03T00:16:34.041Z,31.08
2024-02-03T00:19:01.026Z,31.35
2024-02-03T00:21:27.973Z,27.38
2024-02-03T00:23:54.899Z,30.75
2024-02-03T00:26:21.847Z,32.50
2024-02-03T00:28:50.916Z,33.10
2024-02-03T00:31:17.903Z,30.00
2024-02-03T00:33:44.938Z,29.73
2024-02-03T00:36:24.712Z,27.45
2024-02-03T00:38:51.608Z,34.08
2024-02-03T00:41:18.796Z,32.80
2024-02-03T00:43:45.670Z,31.73
2024-02-03T00:46:12.802Z,38.63
2024-02-03T00:48:40.004Z,36.40
2024-02-03T00:51:11.043Z,39.08
2024-02-03T00:53:38.050Z,34.10
2024-02-03T00:56:05.570Z,44.95
2024-02-03T00:58:32.559Z,42.90
2024-02-03T01:00:59.629Z,36.42
2024-02-03T01:03:26.652Z,35.97
2024-02-03T01:05:53.992Z,35.90
2024-02-03T01:08:21.171Z,35.17
2024-02-03T01:10:48.356Z,32.22
2024-02-03T01:13:15.472Z,31.92
2024-02-03T01:15:42.364Z,30.35
2024-02-03T01:18:09.413Z,30.42
2024-02-03T01:20:36.419Z,33.33
2024-02-03T01:23:03.329Z,31.20
2024-02-03T01:25:30.189Z,29.80
2024-02-03T01:27:57.049Z,30.52
2024-02-03T01:30:23.917Z,31.42
2024-02-03T01:32:50.818Z,32.13
2024-02-03T01:35:17.714Z,29.70
2024-02-03T01:37:44.602Z,31.15
2024-02-03T01:40:14.116Z,29.50
2024-02-03T01:42:41.155Z,32.25
2024-02-03T01:45:08.581Z,32.58
2024-02-03T01:47:35.712Z,27.92
2024-02-03T01:50:05.617Z,26.67
2024-02-03T01:52:34.022Z,28.95
2024-02-03T01:55:00.949Z,28.48
2024-02-03T01:57:30.942Z,26.88
2024-02-03T01:59:58.188Z,27.70
2024-02-03T02:02:25.244Z,27.17
2024-02-03T02:04:52.213Z,32.35
2024-02-03T02:07:21.753Z,26.20
2024-02-03T02:09:49.440Z,27.90
2024-02-03T02:12:16.437Z,28.63
2024-02-03T02:14:43.403Z,30.10
2024-02-03T02:17:10.277Z,31.77
2024-02-03T02:19:37.286Z,26.80
2024-02-03T02:22:04.438Z,28.10
2024-02-03T02:24:31.287Z,26.40
2024-02-03T02:26:58.214Z,26.48
2024-02-03T02:29:25.084Z,29.00
2024-02-03T02:31:52.356Z,28.38
2024-02-03T02:34:19.269Z,25.50
2024-02-03T02:36:46.519Z,26.05
2024-02-03T02:39:13.465Z,26.50
2024-02-03T02:41:40.348Z,24.80
2024-02-03T02:44:07.196Z,28.70
2024-02-03T02:46:34.395Z,23.75
2024-02-03T02:49:03.006Z,24.23
2024-02-03T02:51:30.050Z,26.83
2024-02-03T02:53:56.910Z,28.73
2024-02-03T02:56:23.781Z,23.45
2024-02-03T02:58:50.637Z,25.45
2024-02-03T03:01:20.489Z,26.58
2024-02-03T03:03:47.597Z,26.60
2024-02-03T03:06:14.832Z,26.98
2024-02-03T03:08:41.710Z,24.85
2024-02-03T03:11:10.640Z,28.77
2024-02-03T03:13:37.518Z,24.17
2024-02-03T03:16:04.953Z,29.02
2024-02-03T03:18:31.961Z,27.23
2024-02-03T03:21:00.066Z,31.95
2024-02-03T03:23:26.982Z,24.60
2024-02-03T03:25:57.670Z,28.10
2024-02-03T03:28:24.456Z,29.55
2024-02-03T03:30:51.398Z,24.48
2024-02-03T03:33:18.360Z,28.55
2024-02-03T03:35:45.315Z,26.75
2024-02-03T03:38:14.994Z,27.63
2024-02-03T03:40:41.791Z,25.55
2024-02-03T03:43:08.593Z,24.70
2024-02-03T03:45:35.725Z,27.30
2024-02-03T03:48:02.787Z,26.88
2024-02-03T03:50:29.588Z,24.55
2024-02-03T03:52:56.403Z,25.90
2024-02-03T03:55:23.199Z,28.90
2024-02-03T03:57:50.130Z,24.52
2024-02-03T04:00:17.985Z,22.95
2024-02-03T04:02:44.816Z,25.08
2024-02-03T04:05:11.577Z,24.60
2024-02-03T04:07:38.472Z,29.48
2024-02-03T04:10:05.659Z,28.60
2024-02-03T04:12:32.666Z,21.90
2024-02-03T04:14:59.704Z,24.55
2024-02-03T04:17:26.603Z,26.30
2024-02-03T04:19:53.633Z,24.92
2024-02-03T04:22:21.138Z,25.98
2024-02-03T04:24:47.973Z,24.95
2024-02-03T04:27:14.876Z,23.27
2024-02-03T04:29:41.973Z,22.35
2024-02-03T04:32:09.072Z,21.77
2024-02-03T04:34:36.064Z,25.60
2024-02-03T04:37:02.974Z,22.85
2024-02-03T04:39:30.564Z,19.98
2024-02-03T04:41:57.693Z,21.83
2024-02-03T04:44:24.477Z,19.85
2024-02-03T04:46:51.675Z,24.27
2024-02-03T04:49:18.694Z,23.60
2024-02-03T04:51:45.655Z,19.17
2024-02-03T04:54:13.494Z,20.20
2024-02-03T04:56:40.316Z,19.77
2024-02-03T04:59:07.126Z,20.98
2024-02-03T05:01:35.807Z,19.42
2024-02-03T05:04:02.929Z,21.02
2024-02-03T05:06:29.913Z,20.60
2024-02-03T05:08:59.993Z,19.02
2024-02-03T05:11:27.156Z,19.58
2024-02-03T05:13:54.171Z,21.48
2024-02-03T05:16:20.930Z,20.35
2024-02-03T05:18:47.874Z,18.92
2024-02-03T05:21:15.572Z,18.33
2024-02-03T05:23:42.469Z,19.73
2024-02-03T05:26:09.981Z,18.05
2024-02-03T05:28:36.812Z,21.35
2024-02-03T05:31:03.673Z,20.23
2024-02-03T05:33:31.942Z,16.05
2024-02-03T05:35:59.298Z,18.65
2024-02-03T05:38:26.182Z,19.42
2024-02-03T05:40:53.327Z,20.35
2024-02-03T05:43:20.108Z,18.50
2024-02-03T05:45:46.961Z,17.70
2024-02-03T05:48:13.944Z,17.95
2024-02-03T05:50:40.773Z,17.02
2024-02-03T05:53:08.952Z,15.68
2024-02-03T05:55:35.919Z,18.25
2024-02-03T05:58:02.804Z,16.25
2024-02-03T06:00:29.685Z,21.33
2024-02-03T06:03:00.262Z,19.05
2024-02-03T06:05:27.389Z,19.40
2024-02-03T06:07:54.293Z,20.48
2024-02-03T06:10:21.471Z,22.42
2024-02-03T06:12:48.368Z,22.90
2024-02-03T06:15:15.298Z,21.95
2024-02-03T06:17:42.284Z,24.33
2024-02-03T06:20:10.023Z,20.77
2024-02-03T06:22:36.959Z,22.52
2024-02-03T06:25:03.962Z,21.92
2024-02-03T06:27:30.791Z,28.52
2024-02-03T06:29:57.587Z,28.95
2024-02-03T06:32:24.506Z,24.10
2024-02-03T06:34:51.624Z,25.05
2024-02-03T06:37:18.492Z,26.45
2024-02-03T06:39:45.336Z,29.70
2024-02-03T06:42:12.332Z,29.00
2024-02-03T06:44:39.155Z,34.60
2024-02-03T06:47:06.150Z,28.33
2024-02-03T06:49:33.073Z,27.33
2024-02-03T06:52:00.225Z,29.92
2024-02-03T06:54:27.187Z,25.23
2024-02-03T06:56:54.097Z,29.25
2024-02-03T06:59:20.971Z,22.90
2024-02-03T07:01:47.824Z,20.05
2024-02-03T07:04:15.064Z,22.50
2024-02-03T07:06:42.009Z,21.30
2024-02-03T07:09:09.627Z,22.45
2024-02-03T07:11:36.516Z,22.33
2024-02-03T07:14:03.770Z,21.05
2024-02-03T07:16:30.587Z,19.20
2024-02-03T07:18:58.797Z,18.98
2024-02-03T07:21:25.808Z,17.05
2024-02-03T07:23:52.785Z,19.85
2024-02-03T07:26:19.621Z,18.40
2024-02-03T07:28:46.421Z,17.77
2024-02-03T07:31:13.274Z,18.25
2024-02-03T07:33:40.192Z,21.15
2024-02-03T07:36:07.510Z,23.40
2024-02-03T07:38:34.331Z,20.38
2024-02-03T07:41:01.190Z,16.08
2024-02-03T07:43:28.090Z,22.20
2024-02-03T07:45:54.948Z,21.60
2024-02-03T07:48:21.979Z,18.48
2024-02-03T07:50:48.923Z,20.15
2024-02-03T07:53:15.738Z,16.40
2024-02-03T07:55:42.539Z,15.23
2024-02-03T07:58:09.450Z,17.15
2024-02-03T08:00:36.424Z,16.02
2024-02-03T08:03:03.599Z,16.30
2024-02-03T08:05:31.093Z,14.23
2024-02-03T08:07:57.911Z,14.20
2024-02-03T08:10:24.694Z,14.98
2024-02-03T08:12:51.976Z,13.32
2024-02-03T08:15:19.556Z,16.02
2024-02-03T08:17:46.757Z,15.30
2024-02-03T08:20:13.762Z,17.00
2024-02-03T08:22:40.631Z,15.05
2024-02-03T08:25:08.272Z,13.90
2024-02-03T08:27:35.205Z,11.48
2024-02-03T08:30:02.049Z,13.98
2024-02-03T08:32:28.947Z,13.73
2024-02-03T08:37:25.757Z,10.80
2024-02-03T08:39:52.622Z,12.35
2024-02-03T08:42:20.999Z,8.48
2024-02-03T08:44:47.982Z,11.20
2024-02-03T08:47:15.731Z,12.70
2024-02-03T08:49:53.346Z,10.85
2024-02-03T08:52:21.090Z,9.10
2024-02-03T08:54:47.988Z,10.65
2024-02-03T08:57:14.944Z,14.27
2024-02-03T08:59:41.844Z,11.40
2024-02-03T09:02:08.678Z,10.07
2024-02-03T09:04:35.585Z,9.52
2024-02-03T09:07:02.437Z,11.07
2024-02-03T09:09:29.241Z,10.98
2024-02-03T09:11:56.088Z,10.65
2024-02-03T09:14:22.948Z,9.07
2024-02-03T09:16:49.755Z,9.23
2024-02-03T09:19:16.822Z,12.02
2024-02-03T09:21:43.884Z,11.52
2024-02-03T09:24:10.965Z,10.52
2024-02-03T09:26:41.165Z,12.77
2024-02-03T09:29:11.338Z,10.30
2024-02-03T09:31:38.185Z,10.25
2024-02-03T09:34:06.319Z,15.57
2024-02-03T09:36:33.776Z,19.85
2024-02-03T09:39:01.070Z,18.50
2024-02-03T09:41:30.232Z,11.90
2024-02-03T09:43:59.418Z,15.85
2024-02-03T09:46:26.389Z,13.68
2024-02-03T09:48:53.532Z,13.95
2024-02-03T09:51:21.067Z,12.63
2024-02-03T09:53:48.506Z,19.02
2024-02-03T09:56:15.341Z,13.85
2024-02-03T09:58:42.869Z,13.18
2024-02-03T10:01:10.040Z,16.75
2024-02-03T10:03:42.644Z,14.98
2024-02-03T10:06:11.571Z,20.80
2024-02-03T10:08:38.542Z,14.25
2024-02-03T10:11:05.584Z,19.45
2024-02-03T10:13:34.376Z,13.30
2024-02-03T10:16:03.552Z,14.95
2024-02-03T10:18:34.790Z,16.13
2024-02-03T10:21:02.878Z,13.20
2024-02-03T10:23:30.924Z,13.90
2024-02-03T10:26:01.614Z,14.35
2024-02-03T10:28:29.068Z,16.80
2024-02-03T10:31:01.846Z,11.48
2024-02-03T10:33:29.120Z,9.20
2024-02-03T10:35:58.369Z,11.70
2024-02-03T10:38:25.302Z,8.88
2024-02-03T10:40:53.415Z,10.82
2024-02-03T10:43:23.698Z,9.68
2024-02-03T10:45:54.954Z,11.15
2024-02-03T10:48:26.770Z,11.40
2024-02-03T10:50:59.223Z,12.75
2024-02-03T10:53:31.407Z,13.98
2024-02-03T10:56:04.634Z,10.88
2024-02-03T10:58:33.031Z,14.95
2024-02-03T11:01:11.509Z,11.10
2024-02-03T11:03:41.330Z,13.55
2024-02-03T11:06:09.290Z,10.18
2024-02-03T11:08:36.943Z,11.73
2024-02-03T11:11:03.876Z,13.23
2024-02-03T11:13:31.641Z,15.43
2024-02-03T11:15:59.789Z,11.25
2024-02-03T11:18:28.912Z,12.30
2024-02-03T11:21:09.059Z,14.57
2024-02-03T11:23:36.797Z,13.70
2024-02-03T11:26:03.807Z,12.48
2024-02-03T11:28:34.851Z,12.55
2024-02-03T11:31:02.899Z,13.00
2024-02-03T11:33:32.427Z,13.63
2024-02-03T11:36:03.991Z,11.80
2024-02-03T11:38:30.809Z,16.80
2024-02-03T11:41:00.881Z,12.85
2024-02-03T11:43:29.397Z,13.55
2024-02-03T11:46:02.755Z,12.52
2024-02-03T11:48:29.996Z,11.48
2024-02-03T11:50:57.186Z,10.32
2024-02-03T11:53:27.666Z,9.65
2024-02-03T11:55:55.484Z,14.25
2024-02-03T11:58:22.497Z,12.75
2024-02-03T12:00:49.573Z,9.77
2024-02-03T12:03:16.642Z,9.85
2024-02-03T12:05:45.282Z,9.88
2024-02-03T12:08:12.781Z,10.82
2024-02-03T12:10:39.788Z,9.77
2024-02-03T12:13:07.536Z,10.75
2024-02-03T12:15:35.205Z,10.02
2024-02-03T12:18:03.247Z,12.13
2024-02-03T12:20:30.269Z,10.82
2024-02-03T12:22:57.556Z,12.52
2024-02-03T12:25:24.402Z,10.98
2024-02-03T12:27:51.711Z,11.68
2024-02-03T12:30:20.144Z,10.27
2024-02-03T12:32:47.852Z,9.52
2024-02-03T12:35:16.122Z,10.45
2024-02-03T12:37:43.387Z,9.80
2024-02-03T12:40:11.588Z,11.00
2024-02-03T12:42:38.578Z,9.65
2024-02-03T12:45:07.384Z,12.77
2024-02-03T12:47:37.416Z,9.75
2024-02-03T12:50:04.873Z,8.65
2024-02-03T12:52:32.016Z,8.95
2024-02-03T12:54:58.894Z,12.18
2024-02-03T12:57:25.838Z,13.45
2024-02-03T12:59:52.745Z,9.50
2024-02-03T13:02:19.915Z,10.07
2024-02-03T13:04:49.177Z,9.80
2024-02-03T13:07:16.775Z,9.20
2024-02-03T13:09:44.303Z,10.23
2024-02-03T13:12:11.270Z,10.93
2024-02-03T13:14:38.266Z,9.02
2024-02-03T13:17:05.562Z,8.32
2024-02-03T13:19:32.492Z,9.60
2024-02-03T13:22:00.195Z,8.25
2024-02-03T13:24:27.233Z,10.52
2024-02-03T13:26:54.135Z,8.63
2024-02-03T13:29:21.007Z,11.07
2024-02-03T13:31:48.081Z,7.63
2024-02-03T13:34:18.708Z,8.65
2024-02-03T13:36:47.853Z,8.40
2024-02-03T13:39:18.085Z,7.85
2024-02-03T13:41:44.942Z,7.07
2024-02-03T13:44:11.742Z,6.93
2024-02-03T13:46:38.563Z,8.52
2024-02-03T13:49:05.995Z,7.28
2024-02-03T13:51:35.788Z,9.68
2024-02-03T13:54:03.610Z,9.18
2024-02-03T13:56:30.514Z,7.78
2024-02-03T13:58:57.470Z,8.27
2024-02-03T14:01:27.273Z,6.20
2024-02-03T14:03:54.366Z,7.85
2024-02-03T14:06:21.257Z,9.80
2024-02-03T14:08:48.091Z,6.15
2024-02-03T14:11:16.016Z,8.10
2024-02-03T14:13:43.161Z,6.18
2024-02-03T14:16:11.374Z,5.65
2024-02-03T14:18:38.429Z,9.60
2024-02-03T14:21:05.516Z,9.00
2024-02-03T14:23:35.190Z,5.38
2024-02-03T14:26:06.326Z,7.90
2024-02-03T14:28:34.366Z,10.65
2024-02-03T14:31:01.446Z,10.27
2024-02-03T14:33:28.938Z,11.70
2024-02-03T14:35:56.127Z,13.30
2024-02-03T14:38:23.615Z,8.35
2024-02-03T14:40:51.026Z,7.85
2024-02-03T14:43:17.892Z,8.75
2024-02-03T14:45:44.786Z,10.20
2024-02-03T14:48:11.672Z,7.80
2024-02-03T14:50:38.522Z,9.32
2024-02-03T14:53:06.428Z,9.20
2024-02-03T14:55:33.260Z,13.50
2024-02-03T14:58:00.061Z,9.50
2024-02-03T15:00:26.921Z,8.82
2024-02-03T15:02:53.760Z,10.75
2024-02-03T15:05:20.654Z,10.88
2024-02-03T15:07:48.284Z,10.55
2024-02-03T15:10:15.297Z,10.82
2024-02-03T15:12:42.143Z,12.45
2024-02-03T15:15:09.468Z,13.35
2024-02-03T15:17:36.670Z,13.45
2024-02-03T15:20:03.930Z,12.45
2024-02-03T15:22:31.090Z,13.73
2024-02-03T15:24:58.079Z,11.35
2024-02-03T15:27:25.063Z,15.18
2024-02-03T15:29:51.958Z,15.55
2024-02-03T15:32:20.657Z,14.93
2024-02-03T15:34:47.712Z,14.15
2024-02-03T15:37:14.695Z,13.30
2024-02-03T15:39:42.166Z,16.80
2024-02-03T15:42:09.155Z,19.08
2024-02-03T15:44:41.955Z,16.58
2024-02-03T15:47:14.161Z,16.52
2024-02-03T15:49:42.111Z,16.02
2024-02-03T15:52:09.108Z,14.77
2024-02-03T15:54:35.992Z,17.08
2024-02-03T15:57:03.012Z,17.20
2024-02-03T15:59:29.851Z,16.17
2024-02-03T16:01:56.823Z,20.58
2024-02-03T16:04:24.245Z,17.60
2024-02-03T16:06:51.747Z,14.57
2024-02-03T16:09:18.801Z,16.08
2024-02-03T16:11:45.861Z,16.52
2024-02-03T16:14:12.750Z,19.90
2024-02-03T16:16:39.694Z,21.27
2024-02-03T16:19:06.660Z,16.65
2024-02-03T16:21:33.630Z,18.00
2024-02-03T16:24:01.101Z,20.33
2024-02-03T16:26:28.246Z,24.90
2024-02-03T16:28:55.351Z,20.70
2024-02-03T16:31:22.273Z,20.17
2024-02-03T16:33:49.297Z,25.88
2024-02-03T16:36:16.260Z,23.58
2024-02-03T16:38:43.072Z,24.73
2024-02-03T16:41:09.852Z,38.83
2024-02-03T16:43:36.672Z,33.00
2024-02-03T16:46:03.590Z,30.88
2024-02-03T16:48:30.462Z,27.10
2024-02-03T16:50:57.368Z,29.95
2024-02-03T16:53:24.149Z,25.77
2024-02-03T16:55:51.052Z,24.30
2024-02-03T16:58:17.820Z,23.75
2024-02-03T17:00:44.705Z,24.83
2024-02-03T17:03:11.979Z,23.90
2024-02-03T17:05:41.783Z,26.63
2024-02-03T17:08:10.517Z,21.30
2024-02-03T17:10:37.319Z,27.10
2024-02-03T17:13:04.403Z,27.27
2024-02-03T17:15:31.332Z,22.67
2024-02-03T17:17:58.388Z,21.65
2024-02-03T17:20:27.308Z,27.65
2024-02-03T17:22:54.492Z,21.45
2024-02-03T17:25:21.687Z,23.65
2024-02-03T17:27:49.140Z,25.30
2024-02-03T17:30:16.785Z,32.00
2024-02-03T17:32:43.708Z,36.20
2024-02-03T17:35:10.613Z,32.17
2024-02-03T17:37:37.580Z,29.77
2024-02-03T17:40:04.684Z,26.92
2024-02-03T17:42:31.513Z,22.20
2024-02-03T17:44:58.641Z,29.60
2024-02-03T17:47:26.365Z,28.00
2024-02-03T17:49:53.380Z,23.30
2024-02-03T17:52:20.242Z,22.63
2024-02-03T17:54:48.979Z,20.77
2024-02-03T17:57:15.951Z,20.13
2024-02-03T17:59:42.945Z,21.15
2024-02-03T18:02:09.993Z,27.42
2024-02-03T18:04:36.890Z,22.75
2024-02-03T18:07:04.099Z,26.75
2024-02-03T18:09:30.963Z,26.38
2024-02-03T18:11:57.740Z,17.00
2024-02-03T18:14:24.771Z,22.63
2024-02-03T18:16:51.614Z,17.48
2024-02-03T18:19:18.518Z,23.23
2024-02-03T18:21:45.438Z,24.75
2024-02-03T18:24:12.282Z,22.08
2024-02-03T18:26:39.102Z,25.13
2024-02-03T18:29:05.990Z,20.85
2024-02-03T18:31:32.892Z,20.70
2024-02-03T18:33:59.880Z,22.95
2024-02-03T18:36:26.803Z,20.40
2024-02-03T18:38:53.675Z,19.60
2024-02-03T18:41:20.544Z,25.90
2024-02-03T18:43:47.325Z,23.90
2024-02-03T18:46:14.177Z,19.95
2024-02-03T18:48:41.516Z,20.75
2024-02-03T18:51:08.549Z,26.77
2024-02-03T18:53:35.708Z,29.40
2024-02-03T18:56:02.557Z,28.60
2024-02-03T18:58:30.295Z,30.77
2024-02-03T19:00:57.848Z,32.25
2024-02-03T19:03:24.864Z,38.97
2024-02-03T19:05:51.768Z,38.90
2024-02-03T19:08:18.821Z,32.72
2024-02-03T19:10:45.638Z,32.30
2024-02-03T19:13:12.478Z,27.58
2024-02-03T19:15:39.452Z,31.88
2024-02-03T19:18:08.511Z,27.98
2024-02-03T19:20:35.427Z,29.05
2024-02-03T19:23:02.233Z,31.05
2024-02-03T19:25:29.125Z,31.58
2024-02-03T19:27:57.122Z,26.85
2024-02-03T19:30:24.116Z,30.23
2024-02-03T19:32:50.926Z,28.25
2024-02-03T19:35:18.911Z,25.20
2024-02-03T19:37:45.727Z,28.73
2024-02-03T19:40:13.320Z,34.63
2024-02-03T19:42:42.572Z,31.05
2024-02-03T19:45:10.137Z,31.77
2024-02-03T19:47:37.039Z,36.60
2024-02-03T19:50:05.730Z,37.38
2024-02-03T19:52:33.437Z,35.22
2024-02-03T19:55:00.408Z,33.15
2024-02-03T19:57:27.339Z,37.60
2024-02-03T19:59:54.319Z,35.13
2024-02-03T20:02:21.165Z,34.63
2024-02-03T20:04:48.250Z,35.40
2024-02-03T20:07:16.090Z,33.30
2024-02-03T20:09:43.611Z,30.38
2024-02-03T20:12:10.678Z,34.65
2024-02-03T20:14:39.737Z,37.45
2024-02-03T20:17:06.573Z,37.08
2024-02-03T20:19:33.651Z,33.92
2024-02-03T20:22:00.842Z,39.35
2024-02-03T20:24:28.985Z,33.45
2024-02-03T20:26:56.388Z,36.65
2024-02-03T20:29:23.345Z,35.35
2024-02-03T20:31:50.220Z,33.30
2024-02-03T20:34:19.015Z,32.42
2024-02-03T20:36:47.577Z,40.83
2024-02-03T20:39:15.421Z,37.75
2024-02-03T20:41:45.722Z,39.30
2024-02-03T20:44:14.277Z,35.88
2024-02-03T20:46:41.454Z,36.42
2024-02-03T20:49:08.565Z,36.97
2024-02-03T20:51:35.683Z,36.83
2024-02-03T20:54:02.618Z,35.45
2024-02-03T20:56:29.409Z,36.65
2024-02-03T20:58:56.320Z,35.08
2024-02-03T21:01:24.199Z,31.77
2024-02-03T21:03:51.295Z,37.15
2024-02-03T21:06:18.907Z,33.60
2024-02-03T21:08:45.871Z,32.38
2024-02-03T21:11:13.068Z,33.20
2024-02-03T21:13:40.461Z,32.67
2024-02-03T21:16:07.919Z,33.83
2024-02-03T21:18:34.847Z,29.42
2024-02-03T21:21:02.071Z,32.53
2024-02-03T21:23:29.020Z,33.72
2024-02-03T21:25:56.002Z,34.58
2024-02-03T21:28:22.833Z,32.45
2024-02-03T21:30:49.788Z,34.10
2024-02-03T21:33:16.805Z,32.78
2024-02-03T21:35:43.782Z,32.67
2024-02-03T21:38:10.664Z,29.80
2024-02-03T21:40:37.553Z,31.92
2024-02-03T21:43:05.066Z,28.60
2024-02-03T21:45:32.063Z,31.08
2024-02-03T21:47:59.214Z,30.42
2024-02-03T21:50:26.155Z,30.10
2024-02-03T21:52:52.992Z,28.13
2024-02-03T21:55:19.840Z,30.27
2024-02-03T21:57:46.675Z,33.47
2024-02-03T22:00:14.087Z,31.77
2024-02-03T22:02:40.893Z,28.92
2024-02-03T22:05:08.775Z,30.33
2024-02-03T22:07:35.706Z,33.20
2024-02-03T22:10:02.705Z,33.25
2024-02-03T22:12:30.322Z,34.15
2024-02-03T22:14:57.161Z,31.55
2024-02-03T22:17:23.983Z,28.23
2024-02-03T22:19:51.054Z,32.55
2024-02-03T22:22:17.913Z,36.75
2024-02-03T22:24:44.845Z,34.88
2024-02-03T22:27:11.664Z,26.90
2024-02-03T22:29:38.463Z,28.33
2024-02-03T22:32:05.662Z,28.90
2024-02-03T22:34:32.659Z,31.92
2024-02-03T22:36:59.655Z,30.48
2024-02-03T22:39:26.557Z,31.67
2024-02-03T22:41:58.152Z,30.48
2024-02-03T22:44:25.141Z,34.30
2024-02-03T22:46:51.995Z,34.88
2024-02-03T22:49:18.830Z,35.05
2024-02-03T22:51:45.690Z,32.13
2024-02-03T22:54:12.563Z,32.42
2024-02-03T22:56:39.375Z,28.70
2024-02-03T22:59:06.203Z,28.17
2024-02-03T23:01:34.014Z,33.35
2024-02-03T23:04:01.074Z,38.45
2024-02-03T23:06:31.309Z,39.35
2024-02-03T23:08:59.233Z,41.20
2024-02-03T23:11:27.918Z,38.90
2024-02-03T23:13:54.752Z,38.58
2024-02-03T23:16:21.587Z,36.75
2024-02-03T23:18:48.504Z,35.15
2024-02-03T23:21:17.129Z,36.63
2024-02-03T23:23:44.353Z,34.00
2024-02-03T23:26:11.776Z,39.55
2024-02-03T23:28:39.233Z,38.10
2024-02-03T23:31:06.251Z,33.20
2024-02-03T23:33:37.578Z,32.38
2024-02-03T23:36:05.150Z,35.72
2024-02-03T23:38:32.063Z,35.05
2024-02-03T23:40:59.769Z,41.40
2024-02-03T23:43:27.384Z,38.50
2024-02-03T23:45:54.297Z,39.33
2024-02-03T23:48:21.368Z,34.90
2024-02-03T23:50:48.498Z,34.25
2024-02-03T23:53:16.417Z,32.33
2024-02-03T23:55:43.861Z,32.38
2024-02-03T23:58:10.855Z,31.95
